Time;durP1;ratioP1;P1;durP2;ratioP2;P2;SDS_P1;SDS_P2;PMS_P1;PMS_P2;Temp;Humidity;BMP_temperature;BMP_pressure;BME280_temperature;BME280_humidity;BME280_pressure;Samples;Min_cycle;Max_cycle;Signal;HPM_P1;HPM_P2
2022/03/31 00:00:10;;;;;;;10.77;7.60;;;;;;;;;;4945212;29;20143;-68
2022/03/31 00:02:37;;;;;;;12.05;8.02;;;;;;;;;;4945729;29;20063;-67
2022/03/31 00:05:03;;;;;;;12.30;7.80;;;;;;;;;;4945606;29;20073;-69
2022/03/31 00:07:28;;;;;;;13.68;8.43;;;;;;;;;;4944889;28;20059;-68
2022/03/31 00:09:54;;;;;;;13.65;8.10;;;;;;;;;;4945211;28;20070;-68
2022/03/31 00:12:19;;;;;;;13.60;8.10;;;;;;;;;;4945620;29;20039;-69
2022/03/31 00:14:45;;;;;;;22.30;8.68;;;;;;;;;;4945582;28;20094;-68
2022/03/31 00:17:10;;;;;;;15.23;8.48;;;;;;;;;;4944656;28;20118;-66
2022/03/31 00:19:37;;;;;;;14.15;9.10;;;;;;;;;;4945344;28;20496;-68
2022/03/31 00:22:03;;;;;;;14.48;8.57;;;;;;;;;;4945504;29;20043;-68
2022/03/31 00:24:29;;;;;;;16.75;9.55;;;;;;;;;;4945946;29;20027;-68
2022/03/31 00:26:54;;;;;;;19.52;9.65;;;;;;;;;;4945021;29;20035;-68
2022/03/31 00:29:19;;;;;;;15.68;9.68;;;;;;;;;;4944169;28;20080;-68
2022/03/31 00:31:45;;;;;;;16.55;9.35;;;;;;;;;;4945120;28;20053;-69
2022/03/31 00:34:11;;;;;;;14.57;10.20;;;;;;;;;;4945079;29;20047;-68
2022/03/31 00:36:36;;;;;;;15.77;10.55;;;;;;;;;;4944920;29;20031;-67
2022/03/31 00:41:46;;;;;;;15.90;9.70;;;;;;;;;;4944964;28;20046;-69
2022/03/31 00:44:12;;;;;;;16.27;10.32;;;;;;;;;;4944855;29;20043;-70
2022/03/31 00:46:46;;;;;;;14.82;10.13;;;;;;;;;;4944758;29;20035;-69
2022/03/31 00:49:12;;;;;;;18.00;10.95;;;;;;;;;;4943774;29;20434;-69
2022/03/31 00:51:37;;;;;;;15.80;10.52;;;;;;;;;;4944556;28;20042;-69
2022/03/31 00:54:03;;;;;;;18.88;9.90;;;;;;;;;;4944626;28;20046;-69
2022/03/31 00:56:29;;;;;;;20.48;11.07;;;;;;;;;;4944847;29;20035;-69
2022/03/31 00:58:54;;;;;;;16.50;10.88;;;;;;;;;;4944326;29;20492;-68
2022/03/31 01:01:21;;;;;;;19.17;11.25;;;;;;;;;;4943582;28;20031;-68
2022/03/31 01:03:47;;;;;;;18.63;11.63;;;;;;;;;;4944273;28;20496;-69
2022/03/31 01:06:12;;;;;;;19.45;11.80;;;;;;;;;;4944505;29;20077;-68
2022/03/31 01:08:37;;;;;;;18.95;11.45;;;;;;;;;;4927168;29;20117;-68
2022/03/31 01:11:03;;;;;;;21.65;11.15;;;;;;;;;;4944208;29;20047;-69
2022/03/31 01:13:28;;;;;;;20.00;11.60;;;;;;;;;;4943588;28;20067;-68
2022/03/31 01:15:54;;;;;;;19.20;11.13;;;;;;;;;;4944578;28;20031;-69
2022/03/31 01:18:20;;;;;;;16.20;11.30;;;;;;;;;;4938463;28;20493;-67
2022/03/31 01:20:46;;;;;;;19.27;11.77;;;;;;;;;;4943915;28;20126;-69
2022/03/31 01:23:15;;;;;;;18.45;12.02;;;;;;;;;;4943448;28;20059;-69
2022/03/31 01:25:41;;;;;;;18.70;10.98;;;;;;;;;;4943474;28;20114;-69
2022/03/31 01:28:07;;;;;;;18.58;10.98;;;;;;;;;;4943747;29;20047;-67
2022/03/31 01:30:33;;;;;;;17.80;11.90;;;;;;;;;;4943933;29;20043;-68
2022/03/31 01:32:58;;;;;;;20.50;11.65;;;;;;;;;;4943619;29;20054;-69
2022/03/31 01:35:23;;;;;;;23.77;12.32;;;;;;;;;;4943212;28;20050;-68
2022/03/31 01:37:49;;;;;;;16.00;10.60;;;;;;;;;;4943817;29;20035;-68
2022/03/31 01:40:15;;;;;;;16.30;10.57;;;;;;;;;;4943598;29;20043;-70
2022/03/31 01:42:42;;;;;;;19.00;12.07;;;;;;;;;;4943422;29;20042;-69
2022/03/31 01:45:14;;;;;;;19.27;11.85;;;;;;;;;;4942954;28;20036;-68
2022/03/31 01:47:40;;;;;;;19.98;12.30;;;;;;;;;;4943464;28;20043;-69
2022/03/31 01:50:09;;;;;;;18.45;11.45;;;;;;;;;;4943328;29;20069;-69
2022/03/31 01:52:35;;;;;;;18.38;11.80;;;;;;;;;;4944051;29;20042;-69
2022/03/31 01:55:01;;;;;;;16.88;11.70;;;;;;;;;;4943400;29;21014;-69
2022/03/31 01:57:26;;;;;;;20.20;11.77;;;;;;;;;;4942796;28;20064;-68
2022/03/31 01:59:52;;;;;;;21.05;13.80;;;;;;;;;;4943194;28;20031;-68
2022/03/31 02:02:17;;;;;;;19.42;13.38;;;;;;;;;;4943346;29;20045;-69
2022/03/31 02:04:42;;;;;;;18.70;12.43;;;;;;;;;;4943531;29;20031;-69
2022/03/31 02:07:11;;;;;;;20.73;13.52;;;;;;;;;;4942817;28;20086;-68
2022/03/31 02:09:37;;;;;;;22.40;13.75;;;;;;;;;;4943223;28;20039;-69
2022/03/31 02:12:03;;;;;;;31.75;15.55;;;;;;;;;;4943292;29;20098;-69
2022/03/31 02:14:28;;;;;;;25.23;14.15;;;;;;;;;;4943867;29;20105;-69
2022/03/31 02:16:55;;;;;;;19.60;12.75;;;;;;;;;;4943044;29;20536;-67
2022/03/31 02:19:21;;;;;;;20.75;13.10;;;;;;;;;;4942298;28;20036;-67
2022/03/31 02:21:46;;;;;;;18.15;11.85;;;;;;;;;;4943188;28;20428;-68
2022/03/31 02:24:12;;;;;;;15.88;11.07;;;;;;;;;;4943112;29;20035;-68
2022/03/31 02:26:38;;;;;;;17.15;10.70;;;;;;;;;;4943580;29;20382;-69
2022/03/31 02:29:04;;;;;;;18.73;10.75;;;;;;;;;;4924978;28;20043;-66
2022/03/31 02:31:31;;;;;;;17.75;11.82;;;;;;;;;;4943203;28;20031;-69
2022/03/31 02:33:56;;;;;;;16.77;11.07;;;;;;;;;;4926014;29;20041;-67
2022/03/31 02:36:23;;;;;;;16.50;11.70;;;;;;;;;;4943232;29;20039;-68
2022/03/31 02:38:48;;;;;;;17.38;11.80;;;;;;;;;;4944767;28;20042;-68
2022/03/31 02:41:13;;;;;;;17.05;11.38;;;;;;;;;;4946135;28;20042;-68
2022/03/31 02:43:39;;;;;;;19.48;12.88;;;;;;;;;;4947087;28;20115;-68
2022/03/31 02:46:05;;;;;;;20.73;13.20;;;;;;;;;;4946926;29;20046;-68
2022/03/31 02:48:30;;;;;;;20.98;12.65;;;;;;;;;;4946840;29;20071;-69
2022/03/31 02:50:56;;;;;;;21.73;13.00;;;;;;;;;;4945979;28;20062;-67
2022/03/31 02:56:05;;;;;;;28.17;16.83;;;;;;;;;;4946529;29;20047;-68
2022/03/31 02:58:31;;;;;;;35.78;20.10;;;;;;;;;;4946603;29;20050;-69
2022/03/31 03:00:56;;;;;;;35.15;19.20;;;;;;;;;;4946140;29;20063;-68
2022/03/31 03:03:22;;;;;;;41.63;20.27;;;;;;;;;;4945833;28;20069;-68
2022/03/31 03:05:48;;;;;;;35.67;19.17;;;;;;;;;;4946237;28;20031;-68
2022/03/31 03:08:15;;;;;;;43.00;21.05;;;;;;;;;;4946435;29;20135;-67
2022/03/31 03:10:41;;;;;;;37.13;19.75;;;;;;;;;;4946227;29;20043;-69
2022/03/31 03:13:07;;;;;;;32.40;17.00;;;;;;;;;;4945648;28;20450;-69
2022/03/31 03:15:33;;;;;;;28.77;16.08;;;;;;;;;;4947255;28;20031;-69
2022/03/31 03:17:58;;;;;;;35.15;18.40;;;;;;;;;;4944395;28;20042;-69
2022/03/31 03:20:24;;;;;;;38.72;20.15;;;;;;;;;;4945825;28;20023;-68
2022/03/31 03:22:51;;;;;;;35.97;18.88;;;;;;;;;;4946097;28;20038;-69
2022/03/31 03:25:18;;;;;;;26.27;15.15;;;;;;;;;;4927546;28;20043;-69
2022/03/31 03:27:48;;;;;;;27.75;14.85;;;;;;;;;;4944596;28;20042;-69
2022/03/31 03:30:15;;;;;;;23.77;14.80;;;;;;;;;;4945847;28;20563;-69
2022/03/31 03:32:41;;;;;;;28.45;15.25;;;;;;;;;;4946089;29;20075;-68
2022/03/31 03:35:08;;;;;;;28.83;15.75;;;;;;;;;;4945536;28;20117;-68
2022/03/31 03:37:34;;;;;;;25.77;14.73;;;;;;;;;;4946099;28;20027;-67
2022/03/31 03:40:03;;;;;;;20.20;12.00;;;;;;;;;;4945930;29;20039;-68
2022/03/31 03:42:29;;;;;;;17.08;12.35;;;;;;;;;;4946195;29;20035;-67
2022/03/31 03:44:55;;;;;;;21.48;13.13;;;;;;;;;;4945679;29;20035;-67
2022/03/31 03:47:21;;;;;;;19.00;12.93;;;;;;;;;;4944571;28;20500;-67
2022/03/31 03:49:47;;;;;;;18.00;11.75;;;;;;;;;;4944941;28;20039;-69
2022/03/31 03:52:12;;;;;;;21.45;12.57;;;;;;;;;;4945655;29;20043;-68
2022/03/31 03:54:38;;;;;;;27.88;14.25;;;;;;;;;;4945667;29;20039;-68
2022/03/31 03:57:04;;;;;;;26.25;15.25;;;;;;;;;;4944706;29;20051;-68
2022/03/31 03:59:29;;;;;;;24.15;14.27;;;;;;;;;;4945575;28;20031;-68
2022/03/31 04:01:55;;;;;;;21.85;12.93;;;;;;;;;;4945273;29;20563;-68
2022/03/31 04:04:20;;;;;;;20.35;12.15;;;;;;;;;;4945440;29;20038;-68
2022/03/31 04:06:45;;;;;;;25.23;13.30;;;;;;;;;;4945403;29;20551;-68
2022/03/31 04:09:11;;;;;;;18.63;12.55;;;;;;;;;;4941790;28;20054;-70
2022/03/31 04:11:36;;;;;;;21.42;12.82;;;;;;;;;;4939321;28;20039;-68
2022/03/31 04:14:02;;;;;;;20.25;12.32;;;;;;;;;;4943317;28;20100;-69
2022/03/31 04:16:28;;;;;;;21.50;12.25;;;;;;;;;;4949378;28;20037;-71
2022/03/31 04:18:53;;;;;;;16.60;11.73;;;;;;;;;;4950833;29;20114;-70
2022/03/31 04:21:19;;;;;;;18.40;12.18;;;;;;;;;;4945376;28;20139;-71
2022/03/31 04:23:44;;;;;;;18.20;12.45;;;;;;;;;;4944944;29;20102;-69
2022/03/31 04:26:10;;;;;;;19.77;12.05;;;;;;;;;;4944898;29;20039;-70
2022/03/31 04:28:35;;;;;;;18.27;12.57;;;;;;;;;;4944854;29;20035;-70
2022/03/31 04:31:01;;;;;;;18.48;12.15;;;;;;;;;;4943885;28;20047;-70
2022/03/31 04:33:28;;;;;;;20.00;13.45;;;;;;;;;;4944988;28;20039;-70
2022/03/31 04:35:54;;;;;;;19.27;12.75;;;;;;;;;;4944370;29;20094;-68
2022/03/31 04:38:20;;;;;;;19.77;12.70;;;;;;;;;;4944807;29;20447;-70
2022/03/31 04:40:46;;;;;;;20.45;13.25;;;;;;;;;;4943771;29;20039;-69
2022/03/31 04:43:11;;;;;;;20.80;12.48;;;;;;;;;;4944217;28;20051;-70
2022/03/31 04:45:37;;;;;;;20.17;13.23;;;;;;;;;;4944063;29;20047;-68
2022/03/31 04:48:02;;;;;;;20.45;12.82;;;;;;;;;;4944851;29;20039;-70
2022/03/31 04:50:28;;;;;;;21.02;13.05;;;;;;;;;;4943899;29;20492;-70
2022/03/31 04:52:53;;;;;;;25.63;14.50;;;;;;;;;;4943656;28;20035;-70
2022/03/31 04:55:19;;;;;;;21.90;13.93;;;;;;;;;;4944527;28;20031;-70
2022/03/31 04:57:46;;;;;;;24.30;15.82;;;;;;;;;;4944282;29;20045;-68
2022/03/31 05:00:12;;;;;;;24.20;15.75;;;;;;;;;;4926880;28;20100;-71
2022/03/31 05:02:37;;;;;;;29.10;17.02;;;;;;;;;;4943384;29;20420;-70
2022/03/31 05:05:03;;;;;;;28.27;16.35;;;;;;;;;;4944156;28;20539;-71
2022/03/31 05:07:28;;;;;;;34.33;17.70;;;;;;;;;;4943715;29;20568;-70
2022/03/31 05:09:54;;;;;;;25.65;16.17;;;;;;;;;;4943731;29;20039;-70
2022/03/31 05:12:20;;;;;;;29.17;15.68;;;;;;;;;;4943962;29;20046;-68
2022/03/31 05:14:45;;;;;;;25.02;15.07;;;;;;;;;;4942554;28;20547;-69
2022/03/31 05:17:11;;;;;;;24.25;14.30;;;;;;;;;;4941845;28;20114;-69
2022/03/31 05:19:38;;;;;;;26.20;13.57;;;;;;;;;;4941568;29;20071;-69
2022/03/31 05:22:03;;;;;;;21.13;13.73;;;;;;;;;;4941130;29;20404;-69
2022/03/31 05:24:29;;;;;;;24.92;14.05;;;;;;;;;;4941651;29;20054;-71
2022/03/31 05:26:54;;;;;;;18.20;12.77;;;;;;;;;;4942030;28;20082;-70
2022/03/31 05:29:21;;;;;;;19.70;12.77;;;;;;;;;;4941877;28;20047;-67
2022/03/31 05:31:47;;;;;;;23.65;14.13;;;;;;;;;;4942921;29;20035;-69
2022/03/31 05:34:13;;;;;;;22.95;14.00;;;;;;;;;;4943945;29;20039;-70
2022/03/31 05:36:38;;;;;;;23.88;14.57;;;;;;;;;;4943566;28;20062;-68
2022/03/31 05:39:04;;;;;;;21.20;13.48;;;;;;;;;;4943614;28;20035;-70
2022/03/31 05:41:30;;;;;;;20.40;13.98;;;;;;;;;;4944347;29;20113;-68
2022/03/31 05:43:56;;;;;;;25.95;15.40;;;;;;;;;;4943732;29;20039;-70
2022/03/31 05:46:22;;;;;;;24.10;14.55;;;;;;;;;;4943050;29;20146;-69
2022/03/31 05:48:48;;;;;;;23.23;14.48;;;;;;;;;;4943403;28;20138;-69
2022/03/31 05:51:15;;;;;;;26.95;14.77;;;;;;;;;;4940967;28;20104;-68
2022/03/31 05:53:41;;;;;;;26.75;15.27;;;;;;;;;;4942492;28;20031;-68
2022/03/31 05:56:07;;;;;;;24.23;16.02;;;;;;;;;;4943228;29;20051;-68
2022/03/31 05:58:33;;;;;;;29.25;15.57;;;;;;;;;;4942179;28;20073;-68
2022/03/31 06:00:59;;;;;;;26.02;15.35;;;;;;;;;;4942911;28;20035;-69
2022/03/31 06:03:24;;;;;;;28.60;16.20;;;;;;;;;;4943137;29;20045;-70
2022/03/31 06:05:50;;;;;;;25.25;16.08;;;;;;;;;;4942830;29;20042;-69
2022/03/31 06:08:17;;;;;;;23.98;16.02;;;;;;;;;;4942628;28;20476;-69
2022/03/31 06:10:44;;;;;;;25.42;16.48;;;;;;;;;;4942794;28;20050;-69
2022/03/31 06:13:09;;;;;;;26.15;16.25;;;;;;;;;;4943095;28;20050;-69
2022/03/31 06:15:36;;;;;;;21.65;15.25;;;;;;;;;;4943078;29;20031;-70
2022/03/31 06:18:02;;;;;;;21.60;15.32;;;;;;;;;;4942848;29;20381;-69
2022/03/31 06:20:34;;;;;;;22.33;15.38;;;;;;;;;;4942088;28;20046;-69
2022/03/31 06:23:03;;;;;;;23.55;15.45;;;;;;;;;;4942733;28;20039;-69
2022/03/31 06:25:28;;;;;;;29.10;15.13;;;;;;;;;;4926030;29;20053;-69
2022/03/31 06:27:54;;;;;;;22.83;14.88;;;;;;;;;;4943048;29;20034;-70
2022/03/31 06:30:20;;;;;;;22.35;14.63;;;;;;;;;;4940216;29;20031;-71
2022/03/31 06:32:46;;;;;;;24.00;14.02;;;;;;;;;;4941580;28;20437;-70
2022/03/31 06:35:14;;;;;;;29.67;15.05;;;;;;;;;;4941316;28;20058;-70
2022/03/31 06:37:44;;;;;;;25.67;15.23;;;;;;;;;;4941068;29;20114;-70
2022/03/31 06:40:15;;;;;;;23.00;15.63;;;;;;;;;;4941037;29;20027;-69
2022/03/31 06:42:41;;;;;;;25.30;16.15;;;;;;;;;;4939882;28;20039;-68
2022/03/31 06:45:12;;;;;;;30.08;17.17;;;;;;;;;;4941521;28;20214;-68
2022/03/31 06:47:42;;;;;;;29.93;17.17;;;;;;;;;;4943106;29;20999;-68
2022/03/31 06:50:09;;;;;;;27.25;17.48;;;;;;;;;;4942696;29;20429;-68
2022/03/31 06:52:35;;;;;;;28.02;16.65;;;;;;;;;;4942813;29;20051;-68
2022/03/31 06:55:00;;;;;;;23.67;16.25;;;;;;;;;;4942574;28;20047;-68
2022/03/31 06:57:26;;;;;;;29.85;17.60;;;;;;;;;;4943149;29;20118;-68
2022/03/31 06:59:52;;;;;;;25.02;16.40;;;;;;;;;;4925530;29;20122;-68
2022/03/31 07:02:17;;;;;;;30.42;18.27;;;;;;;;;;4942776;29;20458;-68
2022/03/31 07:04:43;;;;;;;30.33;17.20;;;;;;;;;;4942331;28;20039;-68
2022/03/31 07:07:08;;;;;;;27.80;17.20;;;;;;;;;;4942910;28;20043;-68
2022/03/31 07:09:34;;;;;;;27.00;17.30;;;;;;;;;;4942474;29;20490;-68
2022/03/31 07:11:59;;;;;;;28.30;17.58;;;;;;;;;;4942879;29;20039;-69
2022/03/31 07:14:25;;;;;;;27.80;17.02;;;;;;;;;;4942270;29;20038;-68
2022/03/31 07:16:50;;;;;;;24.73;15.95;;;;;;;;;;4942877;28;20138;-69
2022/03/31 07:19:16;;;;;;;30.92;17.52;;;;;;;;;;4942557;28;21054;-68
2022/03/31 07:21:41;;;;;;;27.23;17.88;;;;;;;;;;4942755;29;20031;-68
2022/03/31 07:24:07;;;;;;;28.65;17.17;;;;;;;;;;4943272;28;20494;-69
2022/03/31 07:26:32;;;;;;;23.67;16.15;;;;;;;;;;4945760;28;20035;-69
2022/03/31 07:28:57;;;;;;;28.73;17.98;;;;;;;;;;4946235;28;20043;-68
2022/03/31 07:31:26;;;;;;;29.23;16.98;;;;;;;;;;4946258;29;20031;-68
2022/03/31 07:33:51;;;;;;;25.77;17.38;;;;;;;;;;4946570;29;20102;-68
2022/03/31 07:36:18;;;;;;;28.90;16.35;;;;;;;;;;4945308;29;20039;-68
2022/03/31 07:38:45;;;;;;;28.30;18.30;;;;;;;;;;4945833;28;20090;-69
2022/03/31 07:41:12;;;;;;;27.00;17.45;;;;;;;;;;4946024;28;20035;-69
2022/03/31 07:43:38;;;;;;;29.05;17.02;;;;;;;;;;4946307;29;20050;-69
2022/03/31 07:46:04;;;;;;;29.20;17.30;;;;;;;;;;4946953;29;20066;-70
2022/03/31 07:48:29;;;;;;;26.92;16.17;;;;;;;;;;4951415;28;20050;-69
2022/03/31 07:50:58;;;;;;;29.65;17.42;;;;;;;;;;4948246;28;20098;-70
2022/03/31 07:53:24;;;;;;;25.85;16.45;;;;;;;;;;4944952;29;20058;-70
2022/03/31 07:55:50;;;;;;;24.23;16.20;;;;;;;;;;4945955;29;20035;-69
2022/03/31 07:58:15;;;;;;;24.90;15.13;;;;;;;;;;4945511;29;20039;-69
2022/03/31 08:00:42;;;;;;;21.38;14.07;;;;;;;;;;4945431;28;20030;-69
2022/03/31 08:03:07;;;;;;;24.40;14.82;;;;;;;;;;4944745;28;20043;-70
2022/03/31 08:05:37;;;;;;;22.77;15.30;;;;;;;;;;4945826;29;20476;-70
2022/03/31 08:08:03;;;;;;;30.42;15.98;;;;;;;;;;4945638;29;20194;-70
2022/03/31 08:10:28;;;;;;;25.23;15.45;;;;;;;;;;4944507;28;20043;-70
2022/03/31 08:12:54;;;;;;;25.17;16.85;;;;;;;;;;4945708;28;20035;-70
2022/03/31 08:15:23;;;;;;;27.13;16.95;;;;;;;;;;4945056;29;20404;-70
2022/03/31 08:17:49;;;;;;;26.27;17.15;;;;;;;;;;4945087;29;20039;-70
2022/03/31 08:20:15;;;;;;;27.95;17.50;;;;;;;;;;4944398;29;20040;-70
2022/03/31 08:22:40;;;;;;;27.90;16.40;;;;;;;;;;4945201;28;20039;-70
2022/03/31 08:25:08;;;;;;;23.50;14.75;;;;;;;;;;4945359;28;20054;-69
2022/03/31 08:27:35;;;;;;;23.67;15.25;;;;;;;;;;4945506;29;20039;-69
2022/03/31 08:30:05;;;;;;;23.08;15.05;;;;;;;;;;4944740;29;20301;-70
2022/03/31 08:32:35;;;;;;;22.52;14.68;;;;;;;;;;4944516;28;20119;-69
2022/03/31 08:35:02;;;;;;;22.73;14.10;;;;;;;;;;4944278;28;20888;-69
2022/03/31 08:37:27;;;;;;;22.38;14.52;;;;;;;;;;4944687;29;20039;-69
2022/03/31 08:39:52;;;;;;;25.35;14.73;;;;;;;;;;4944693;29;20035;-68
2022/03/31 08:42:18;;;;;;;23.52;14.18;;;;;;;;;;4944608;29;20089;-69
2022/03/31 08:44:44;;;;;;;25.15;14.68;;;;;;;;;;4945125;28;20058;-69
2022/03/31 08:47:10;;;;;;;26.30;14.88;;;;;;;;;;4927346;29;20133;-69
2022/03/31 08:49:36;;;;;;;26.08;15.30;;;;;;;;;;4944632;29;20121;-69
2022/03/31 08:52:03;;;;;;;26.38;14.68;;;;;;;;;;4944572;29;20090;-69
2022/03/31 08:54:29;;;;;;;24.38;14.57;;;;;;;;;;4944579;28;20042;-69
2022/03/31 08:56:55;;;;;;;22.38;14.30;;;;;;;;;;4944598;28;20105;-68
2022/03/31 08:59:20;;;;;;;22.55;14.35;;;;;;;;;;4944727;29;20047;-69
2022/03/31 09:01:45;;;;;;;22.90;13.75;;;;;;;;;;4944434;28;20031;-69
2022/03/31 09:04:22;;;;;;;27.13;14.45;;;;;;;;;;4942814;29;20928;-70
2022/03/31 09:06:59;;;;;;;23.17;14.25;;;;;;;;;;4927402;29;20552;-70
2022/03/31 09:09:25;;;;;;;21.55;13.68;;;;;;;;;;4944432;29;20035;-70
2022/03/31 09:11:50;;;;;;;24.77;14.98;;;;;;;;;;4944457;29;20035;-70
2022/03/31 09:14:16;;;;;;;23.88;14.18;;;;;;;;;;4944324;29;20042;-69
2022/03/31 09:16:41;;;;;;;23.23;15.07;;;;;;;;;;4943624;28;20039;-70
2022/03/31 09:19:11;;;;;;;25.55;15.93;;;;;;;;;;4943976;28;20126;-69
2022/03/31 09:21:49;;;;;;;26.95;15.85;;;;;;;;;;4944327;29;20085;-70
2022/03/31 09:24:15;;;;;;;29.17;15.77;;;;;;;;;;4944114;29;20039;-69
2022/03/31 09:26:45;;;;;;;24.60;14.77;;;;;;;;;;4943736;29;20043;-69
2022/03/31 09:29:13;;;;;;;24.33;15.05;;;;;;;;;;4943890;28;20039;-69
2022/03/31 09:31:38;;;;;;;24.75;14.95;;;;;;;;;;4944135;28;20650;-69
2022/03/31 09:34:04;;;;;;;24.85;14.75;;;;;;;;;;4943868;29;20035;-69
2022/03/31 09:36:30;;;;;;;21.85;13.90;;;;;;;;;;4944054;29;20090;-68
2022/03/31 09:39:01;;;;;;;28.30;16.17;;;;;;;;;;4942816;28;20050;-68
2022/03/31 09:41:32;;;;;;;26.98;16.10;;;;;;;;;;4943916;28;20054;-69
2022/03/31 09:44:00;;;;;;;27.10;15.70;;;;;;;;;;4943892;29;20094;-68
2022/03/31 09:46:38;;;;;;;30.25;16.30;;;;;;;;;;4943401;28;20087;-68
2022/03/31 09:49:23;;;;;;;27.85;16.23;;;;;;;;;;4942871;28;20035;-69
2022/03/31 09:52:14;;;;;;;30.33;15.65;;;;;;;;;;4943866;28;20047;-68
2022/03/31 09:54:40;;;;;;;27.77;15.70;;;;;;;;;;4940583;29;20058;-69
2022/03/31 09:57:09;;;;;;;25.23;15.13;;;;;;;;;;4943899;29;20051;-68
2022/03/31 09:59:41;;;;;;;29.80;14.85;;;;;;;;;;4943026;29;20471;-68
2022/03/31 10:02:08;;;;;;;26.45;15.93;;;;;;;;;;4943424;28;20043;-68
2022/03/31 10:04:34;;;;;;;25.13;15.27;;;;;;;;;;4943484;29;20097;-68
2022/03/31 10:07:00;;;;;;;24.55;14.23;;;;;;;;;;4943829;29;20035;-68
2022/03/31 10:09:26;;;;;;;23.38;14.13;;;;;;;;;;4943523;29;20097;-68
2022/03/31 10:12:21;;;;;;;28.15;15.38;;;;;;;;;;4942783;28;20031;-68
2022/03/31 10:15:01;;;;;;;26.23;14.60;;;;;;;;;;4938302;28;20046;-69
2022/03/31 10:17:29;;;;;;;30.50;15.10;;;;;;;;;;4943489;29;20074;-69
2022/03/31 10:20:09;;;;;;;23.60;14.07;;;;;;;;;;4943597;29;20476;-70
2022/03/31 10:25:18;;;;;;;25.00;14.80;;;;;;;;;;4943191;28;20043;-70
2022/03/31 10:27:49;;;;;;;31.13;15.40;;;;;;;;;;4943491;29;20085;-69
2022/03/31 10:30:19;;;;;;;33.85;16.63;;;;;;;;;;4943200;29;20086;-69
2022/03/31 10:33:01;;;;;;;29.35;16.63;;;;;;;;;;4942811;29;20039;-69
2022/03/31 10:35:28;;;;;;;;;;;;;;;;;;4943745;28;20429;-70
2022/03/31 10:37:55;;;;;;;27.48;16.58;;;;;;;;;;4943142;29;20446;-69
2022/03/31 10:40:33;;;;;;;32.28;16.10;;;;;;;;;;4942916;29;20524;-69
2022/03/31 10:42:58;;;;;;;30.55;16.63;;;;;;;;;;4943159;29;20922;-70
2022/03/31 10:45:39;;;;;;;29.77;15.75;;;;;;;;;;4942490;28;20023;-69
2022/03/31 10:48:20;;;;;;;29.15;16.75;;;;;;;;;;4943197;28;20146;-70
2022/03/31 10:50:59;;;;;;;34.40;17.88;;;;;;;;;;4942157;29;20038;-69
2022/03/31 10:53:29;;;;;;;29.10;17.15;;;;;;;;;;4943445;29;20031;-69
2022/03/31 10:55:55;;;;;;;30.02;17.20;;;;;;;;;;4942994;28;20061;-69
2022/03/31 10:58:26;;;;;;;31.67;17.33;;;;;;;;;;4943152;28;20505;-69
2022/03/31 11:00:55;;;;;;;32.50;17.73;;;;;;;;;;4945536;29;20050;-69
2022/03/31 11:03:21;;;;;;;31.38;17.17;;;;;;;;;;4947093;29;20039;-69
2022/03/31 11:05:48;;;;;;;31.50;18.05;;;;;;;;;;4946236;29;20043;-69
2022/03/31 11:08:17;;;;;;;28.45;16.42;;;;;;;;;;4946619;28;20066;-69
2022/03/31 11:10:46;;;;;;;32.47;17.02;;;;;;;;;;4946490;29;20126;-69
2022/03/31 11:13:12;;;;;;;34.63;17.60;;;;;;;;;;4946537;29;20046;-69
2022/03/31 11:15:38;;;;;;;29.55;18.10;;;;;;;;;;4946436;29;20151;-69
2022/03/31 11:18:04;;;;;;;32.33;18.33;;;;;;;;;;4945714;28;20058;-69
2022/03/31 11:20:30;;;;;;;31.75;18.58;;;;;;;;;;4946346;28;20144;-68
2022/03/31 11:22:59;;;;;;;29.83;16.85;;;;;;;;;;4946615;29;20031;-68
2022/03/31 11:25:25;;;;;;;36.10;17.50;;;;;;;;;;4946561;29;20142;-69
2022/03/31 11:27:52;;;;;;;29.98;17.42;;;;;;;;;;4945502;29;20114;-69
2022/03/31 11:30:23;;;;;;;33.90;17.30;;;;;;;;;;4945557;28;20019;-69
2022/03/31 11:32:55;;;;;;;32.08;16.67;;;;;;;;;;4946186;29;20035;-68
2022/03/31 11:35:24;;;;;;;31.88;17.60;;;;;;;;;;4946233;29;20065;-69
2022/03/31 11:37:51;;;;;;;35.30;18.45;;;;;;;;;;4945799;29;20039;-67
2022/03/31 11:40:22;;;;;;;29.10;15.90;;;;;;;;;;4944974;28;20031;-67
2022/03/31 11:42:50;;;;;;;34.45;17.05;;;;;;;;;;4944267;28;20122;-67
2022/03/31 11:45:31;;;;;;;29.35;17.33;;;;;;;;;;4946102;29;20039;-67
2022/03/31 11:48:03;;;;;;;32.03;17.10;;;;;;;;;;4945742;28;20117;-68
2022/03/31 11:50:29;;;;;;;;;;;;;;;;;;4943979;28;20036;-68
2022/03/31 11:52:55;;;;;;;27.90;16.00;;;;;;;;;;4945825;28;20009;-67
2022/03/31 11:55:21;;;;;;;30.20;16.73;;;;;;;;;;4945825;29;20122;-68
2022/03/31 11:58:13;;;;;;;29.50;16.13;;;;;;;;;;4945560;29;20037;-67
2022/03/31 12:00:49;;;;;;;31.45;15.75;;;;;;;;;;4941707;29;20532;-67
2022/03/31 12:03:16;;;;;;;30.05;16.33;;;;;;;;;;4945582;28;20090;-68
2022/03/31 12:05:41;;;;;;;27.25;16.20;;;;;;;;;;4945756;29;20038;-68
2022/03/31 12:08:07;;;;;;;27.48;14.90;;;;;;;;;;4945495;29;20049;-67
2022/03/31 12:10:33;;;;;;;33.63;16.58;;;;;;;;;;4945041;28;20039;-67
2022/03/31 12:13:01;;;;;;;32.63;16.55;;;;;;;;;;4944530;28;20042;-68
2022/03/31 12:15:29;;;;;;;27.63;15.27;;;;;;;;;;4945484;28;20027;-68
2022/03/31 12:18:08;;;;;;;29.92;15.50;;;;;;;;;;4945383;29;20043;-67
2022/03/31 12:20:36;;;;;;;25.95;15.48;;;;;;;;;;4945331;29;20024;-68
2022/03/31 12:23:14;;;;;;;29.45;15.95;;;;;;;;;;4944755;28;20039;-68
2022/03/31 12:25:40;;;;;;;27.27;15.18;;;;;;;;;;4944162;28;20047;-66
2022/03/31 12:28:08;;;;;;;25.08;14.90;;;;;;;;;;4928259;29;20093;-69
2022/03/31 12:30:48;;;;;;;26.48;15.38;;;;;;;;;;4945988;29;20657;-68
2022/03/31 12:33:17;;;;;;;24.33;14.05;;;;;;;;;;4945152;29;20555;-67
2022/03/31 12:35:50;;;;;;;26.98;14.48;;;;;;;;;;4944590;28;20253;-68
2022/03/31 12:38:15;;;;;;;26.77;14.40;;;;;;;;;;4945098;28;20042;-69
2022/03/31 12:40:43;;;;;;;30.27;15.80;;;;;;;;;;4944958;29;20102;-68
2022/03/31 12:43:09;;;;;;;29.42;15.85;;;;;;;;;;4944798;29;20126;-68
2022/03/31 12:45:36;;;;;;;33.08;17.23;;;;;;;;;;4944311;28;20066;-68
2022/03/31 12:48:11;;;;;;;29.80;15.65;;;;;;;;;;4944738;28;20556;-68
2022/03/31 12:50:39;;;;;;;25.88;14.02;;;;;;;;;;4944659;29;20035;-67
2022/03/31 12:53:05;;;;;;;28.85;15.95;;;;;;;;;;4945018;29;20069;-68
2022/03/31 12:55:31;;;;;;;27.00;14.90;;;;;;;;;;4943777;29;20404;-68
2022/03/31 12:57:59;;;;;;;25.90;14.85;;;;;;;;;;4927298;28;20039;-69
2022/03/31 13:00:25;;;;;;;27.42;14.77;;;;;;;;;;4944629;29;20046;-67
2022/03/31 13:02:51;;;;;;;27.08;14.98;;;;;;;;;;4941825;29;20039;-68
2022/03/31 13:05:21;;;;;;;28.92;15.85;;;;;;;;;;4941787;28;20046;-67
2022/03/31 13:07:49;;;;;;;29.05;14.43;;;;;;;;;;4943201;28;20039;-71
2022/03/31 13:10:15;;;;;;;25.05;13.65;;;;;;;;;;4942011;28;20170;-68
2022/03/31 13:12:41;;;;;;;23.95;14.52;;;;;;;;;;4943174;29;20055;-68
2022/03/31 13:15:10;;;;;;;22.85;13.65;;;;;;;;;;4944195;28;20050;-67
2022/03/31 13:17:36;;;;;;;23.23;13.70;;;;;;;;;;4944319;29;20042;-68
2022/03/31 13:20:02;;;;;;;27.85;13.52;;;;;;;;;;4943855;29;20039;-68
2022/03/31 13:22:28;;;;;;;22.65;12.68;;;;;;;;;;4943662;28;20043;-68
2022/03/31 13:24:54;;;;;;;27.20;13.68;;;;;;;;;;4943643;28;20131;-68
2022/03/31 13:27:21;;;;;;;25.52;13.38;;;;;;;;;;4944131;28;20473;-68
2022/03/31 13:29:48;;;;;;;23.38;13.27;;;;;;;;;;4944266;29;20050;-69
2022/03/31 13:32:14;;;;;;;23.75;13.43;;;;;;;;;;4943710;29;20039;-68
2022/03/31 13:34:41;;;;;;;27.67;14.90;;;;;;;;;;4943300;29;20043;-68
2022/03/31 13:37:07;;;;;;;22.67;12.95;;;;;;;;;;4943591;28;20049;-68
2022/03/31 13:39:34;;;;;;;24.50;13.18;;;;;;;;;;4943673;29;20047;-69
2022/03/31 13:42:00;;;;;;;25.33;13.38;;;;;;;;;;4943606;29;20049;-69
2022/03/31 13:44:26;;;;;;;24.67;12.93;;;;;;;;;;4943704;29;20039;-68
2022/03/31 13:46:53;;;;;;;25.52;12.60;;;;;;;;;;4943121;28;20041;-68
2022/03/31 13:49:19;;;;;;;23.67;12.57;;;;;;;;;;4943653;28;20054;-67
2022/03/31 13:51:47;;;;;;;26.25;13.43;;;;;;;;;;4943332;29;20571;-68
2022/03/31 13:54:14;;;;;;;25.98;13.77;;;;;;;;;;4943871;29;20034;-70
2022/03/31 13:56:42;;;;;;;25.05;13.68;;;;;;;;;;4943036;29;20035;-69
2022/03/31 14:01:55;;;;;;;27.65;14.27;;;;;;;;;;4943579;29;20449;-69
2022/03/31 14:04:24;;;;;;;24.67;12.93;;;;;;;;;;4943686;29;20054;-69
2022/03/31 14:06:51;;;;;;;25.25;13.20;;;;;;;;;;4943803;29;20562;-69
2022/03/31 14:09:22;;;;;;;22.88;13.88;;;;;;;;;;4942602;28;20504;-69
2022/03/31 14:11:49;;;;;;;24.35;13.48;;;;;;;;;;4943421;28;20153;-69
2022/03/31 14:14:15;;;;;;;27.63;13.98;;;;;;;;;;4943174;29;20413;-70
2022/03/31 14:16:44;;;;;;;23.67;14.02;;;;;;;;;;4943112;29;20054;-70
2022/03/31 14:19:13;;;;;;;23.77;12.55;;;;;;;;;;4942577;29;20042;-71
2022/03/31 14:21:40;;;;;;;25.15;13.20;;;;;;;;;;4943392;28;20023;-68
2022/03/31 14:24:08;;;;;;;29.15;14.65;;;;;;;;;;4943289;29;20047;-68
2022/03/31 14:26:34;;;;;;;26.50;15.07;;;;;;;;;;4942903;29;20406;-70
2022/03/31 14:29:00;;;;;;;30.95;17.67;;;;;;;;;;4943392;29;20385;-67